sensor_id;sensor_type;location;lat;lon;timestamp;temperature;humidity
9800;DHT22;4939;52.00085300;4.17406100;2023-06-26T00:00:15;21.70;99.90
9800;DHT22;4939;52.00085300;4.17406100;2023-06-26T00:02:41;21.70;99.90
9800;DHT22;4939;52.00085300;4.17406100;2023-06-26T00:05:08;21.60;99.90
9800;DHT22;4939;52.00085300;4.17406100;2023-06-26T00:07:33;21.50;99.90
9800;DHT22;4939;52.00085300;4.17406100;2023-06-26T00:10:00;21.40;99.90
9800;DHT22;4939;52.00085300;4.17406100;2023-06-26T00:12:26;21.40;99.90
9800;DHT22;4939;52.00085300;4.17406100;2023-06-26T00:14:52;21.20;99.90
9800;DHT22;4939;52.00085300;4.17406100;2023-06-26T00:17:18;21.20;99.90
9800;DHT22;4939;52.00085300;4.17406100;2023-06-26T00:19:44;21.10;99.90
9800;DHT22;4939;52.00085300;4.17406100;2023-06-26T00:22:09;21.10;99.90
9800;DHT22;4939;52.00085300;4.17406100;2023-06-26T00:24:35;21.00;99.90
9800;DHT22;4939;52.00085300;4.17406100;2023-06-26T00:27:00;21.00;99.90
9800;DHT22;4939;52.00085300;4.17406100;2023-06-26T00:29:26;21.00;99.90
9800;DHT22;4939;52.00085300;4.17406100;2023-06-26T00:31:51;20.90;99.90
9800;DHT22;4939;52.00085300;4.17406100;2023-06-26T00:34:17;20.90;99.90
9800;DHT22;4939;52.00085300;4.17406100;2023-06-26T00:36:43;20.80;99.90
9800;DHT22;4939;52.00085300;4.17406100;2023-06-26T00:39:10;20.90;99.90
9800;DHT22;4939;52.00085300;4.17406100;2023-06-26T00:41:37;20.90;99.90
9800;DHT22;4939;52.00085300;4.17406100;2023-06-26T00:44:04;20.90;99.90
9800;DHT22;4939;52.00085300;4.17406100;2023-06-26T00:46:29;20.90;99.90
9800;DHT22;4939;52.00085300;4.17406100;2023-06-26T00:48:59;20.90;99.90
9800;DHT22;4939;52.00085300;4.17406100;2023-06-26T00:51:29;20.90;99.90
9800;DHT22;4939;52.00085300;4.17406100;2023-06-26T00:53:56;20.90;99.90
9800;DHT22;4939;52.00085300;4.17406100;2023-06-26T00:56:22;20.80;99.90
9800;DHT22;4939;52.00085300;4.17406100;2023-06-26T00:58:48;20.80;99.90
9800;DHT22;4939;52.00085300;4.17406100;2023-06-26T01:01:14;20.80;99.90
9800;DHT22;4939;52.00085300;4.17406100;2023-06-26T01:03:43;20.80;99.90
9800;DHT22;4939;52.00085300;4.17406100;2023-06-26T01:06:11;20.70;99.90
9800;DHT22;4939;52.00085300;4.17406100;2023-06-26T01:08:39;20.80;99.90
9800;DHT22;4939;52.00085300;4.17406100;2023-06-26T01:11:06;20.70;99.90
9800;DHT22;4939;52.00085300;4.17406100;2023-06-26T01:13:33;20.70;99.90
9800;DHT22;4939;52.00085300;4.17406100;2023-06-26T01:16:00;20.70;99.90
9800;DHT22;4939;52.00085300;4.17406100;2023-06-26T01:18:27;20.80;99.90
9800;DHT22;4939;52.00085300;4.17406100;2023-06-26T01:20:55;20.80;99.90
9800;DHT22;4939;52.00085300;4.17406100;2023-06-26T01:23:31;20.80;99.90
9800;DHT22;4939;52.00085300;4.17406100;2023-06-26T01:26:21;20.80;99.90
9800;DHT22;4939;52.00085300;4.17406100;2023-06-26T01:28:47;20.80;99.90
9800;DHT22;4939;52.00085300;4.17406100;2023-06-26T01:31:15;20.80;99.90
9800;DHT22;4939;52.00085300;4.17406100;2023-06-26T01:33:41;20.80;99.90
9800;DHT22;4939;52.00085300;4.17406100;2023-06-26T01:36:07;20.70;99.90
9800;DHT22;4939;52.00085300;4.17406100;2023-06-26T01:38:33;20.70;99.90
9800;DHT22;4939;52.00085300;4.17406100;2023-06-26T01:41:00;20.70;99.90
9800;DHT22;4939;52.00085300;4.17406100;2023-06-26T01:46:21;20.60;99.90
9800;DHT22;4939;52.00085300;4.17406100;2023-06-26T01:49:01;20.60;99.90
9800;DHT22;4939;52.00085300;4.17406100;2023-06-26T01:51:32;19.60;99.90
9800;DHT22;4939;52.00085300;4.17406100;2023-06-26T01:54:01;20.50;99.90
9800;DHT22;4939;52.00085300;4.17406100;2023-06-26T01:56:28;20.50;99.90
9800;DHT22;4939;52.00085300;4.17406100;2023-06-26T01:58:55;20.40;99.90
9800;DHT22;4939;52.00085300;4.17406100;2023-06-26T02:01:21;20.30;99.90
9800;DHT22;4939;52.00085300;4.17406100;2023-06-26T02:03:47;20.30;99.90
9800;DHT22;4939;52.00085300;4.17406100;2023-06-26T02:06:13;20.30;99.90
9800;DHT22;4939;52.00085300;4.17406100;2023-06-26T02:08:39;20.20;99.90
9800;DHT22;4939;52.00085300;4.17406100;2023-06-26T02:11:04;20.10;99.90
9800;DHT22;4939;52.00085300;4.17406100;2023-06-26T02:13:36;20.10;99.90
9800;DHT22;4939;52.00085300;4.17406100;2023-06-26T02:16:02;20.00;99.90
9800;DHT22;4939;52.00085300;4.17406100;2023-06-26T02:18:27;19.80;99.90
9800;DHT22;4939;52.00085300;4.17406100;2023-06-26T02:20:53;19.80;99.90
9800;DHT22;4939;52.00085300;4.17406100;2023-06-26T02:23:20;19.70;99.90
9800;DHT22;4939;52.00085300;4.17406100;2023-06-26T02:25:46;19.70;99.90
9800;DHT22;4939;52.00085300;4.17406100;2023-06-26T02:28:11;19.60;99.90
9800;DHT22;4939;52.00085300;4.17406100;2023-06-26T02:30:37;19.50;99.90
9800;DHT22;4939;52.00085300;4.17406100;2023-06-26T02:33:03;19.50;99.90
9800;DHT22;4939;52.00085300;4.17406100;2023-06-26T02:35:28;19.50;99.90
9800;DHT22;4939;52.00085300;4.17406100;2023-06-26T02:37:54;19.40;99.90
9800;DHT22;4939;52.00085300;4.17406100;2023-06-26T02:40:19;19.40;99.90
9800;DHT22;4939;52.00085300;4.17406100;2023-06-26T02:42:45;19.40;99.90
9800;DHT22;4939;52.00085300;4.17406100;2023-06-26T02:45:10;19.30;99.90
9800;DHT22;4939;52.00085300;4.17406100;2023-06-26T02:47:36;19.30;99.90
9800;DHT22;4939;52.00085300;4.17406100;2023-06-26T02:50:06;19.40;99.90
9800;DHT22;4939;52.00085300;4.17406100;2023-06-26T02:52:31;19.40;99.90
9800;DHT22;4939;52.00085300;4.17406100;2023-06-26T02:54:57;19.40;99.90
9800;DHT22;4939;52.00085300;4.17406100;2023-06-26T02:57:23;19.40;99.90
9800;DHT22;4939;52.00085300;4.17406100;2023-06-26T02:59:48;19.40;99.90
9800;DHT22;4939;52.00085300;4.17406100;2023-06-26T03:02:14;19.40;99.90
9800;DHT22;4939;52.00085300;4.17406100;2023-06-26T03:04:39;19.40;99.90
9800;DHT22;4939;52.00085300;4.17406100;2023-06-26T03:07:05;19.40;99.90
9800;DHT22;4939;52.00085300;4.17406100;2023-06-26T03:09:31;19.40;99.90
9800;DHT22;4939;52.00085300;4.17406100;2023-06-26T03:11:56;19.50;99.90
9800;DHT22;4939;52.00085300;4.17406100;2023-06-26T03:14:22;19.40;99.90
9800;DHT22;4939;52.00085300;4.17406100;2023-06-26T03:16:48;19.40;99.90
9800;DHT22;4939;52.00085300;4.17406100;2023-06-26T03:19:14;19.40;99.90
9800;DHT22;4939;52.00085300;4.17406100;2023-06-26T03:21:40;19.40;99.90
9800;DHT22;4939;52.00085300;4.17406100;2023-06-26T03:24:06;19.30;99.90
9800;DHT22;4939;52.00085300;4.17406100;2023-06-26T03:26:31;19.30;99.90
9800;DHT22;4939;52.00085300;4.17406100;2023-06-26T03:28:58;19.30;99.90
9800;DHT22;4939;52.00085300;4.17406100;2023-06-26T03:31:23;19.30;99.90
9800;DHT22;4939;52.00085300;4.17406100;2023-06-26T03:33:49;19.30;99.90
9800;DHT22;4939;52.00085300;4.17406100;2023-06-26T03:36:14;19.30;99.90
9800;DHT22;4939;52.00085300;4.17406100;2023-06-26T03:38:40;19.30;99.90
9800;DHT22;4939;52.00085300;4.17406100;2023-06-26T03:41:06;19.30;99.90
9800;DHT22;4939;52.00085300;4.17406100;2023-06-26T03:43:31;19.30;99.90
9800;DHT22;4939;52.00085300;4.17406100;2023-06-26T03:45:57;19.20;99.90
9800;DHT22;4939;52.00085300;4.17406100;2023-06-26T03:48:23;19.20;99.90
9800;DHT22;4939;52.00085300;4.17406100;2023-06-26T03:50:48;19.20;99.90
9800;DHT22;4939;52.00085300;4.17406100;2023-06-26T03:53:14;19.20;99.90
9800;DHT22;4939;52.00085300;4.17406100;2023-06-26T03:55:40;19.20;99.90
9800;DHT22;4939;52.00085300;4.17406100;2023-06-26T03:58:05;19.20;99.90
9800;DHT22;4939;52.00085300;4.17406100;2023-06-26T04:00:31;19.20;99.90
9800;DHT22;4939;52.00085300;4.17406100;2023-06-26T04:02:56;19.20;99.90
9800;DHT22;4939;52.00085300;4.17406100;2023-06-26T04:05:23;19.20;99.90
9800;DHT22;4939;52.00085300;4.17406100;2023-06-26T04:07:52;19.20;99.90
9800;DHT22;4939;52.00085300;4.17406100;2023-06-26T04:10:18;19.20;99.90
9800;DHT22;4939;52.00085300;4.17406100;2023-06-26T04:12:44;19.20;99.90
9800;DHT22;4939;52.00085300;4.17406100;2023-06-26T04:15:09;19.20;99.90
9800;DHT22;4939;52.00085300;4.17406100;2023-06-26T04:17:35;19.20;99.90
9800;DHT22;4939;52.00085300;4.17406100;2023-06-26T04:20:01;19.20;99.90
9800;DHT22;4939;52.00085300;4.17406100;2023-06-26T04:22:27;19.10;99.90
9800;DHT22;4939;52.00085300;4.17406100;2023-06-26T04:24:52;19.00;99.90
9800;DHT22;4939;52.00085300;4.17406100;2023-06-26T04:27:18;19.00;99.90
9800;DHT22;4939;52.00085300;4.17406100;2023-06-26T04:29:44;19.10;99.90
9800;DHT22;4939;52.00085300;4.17406100;2023-06-26T04:32:10;19.20;99.90
9800;DHT22;4939;52.00085300;4.17406100;2023-06-26T04:34:35;19.20;99.90
9800;DHT22;4939;52.00085300;4.17406100;2023-06-26T04:37:06;19.10;99.90
9800;DHT22;4939;52.00085300;4.17406100;2023-06-26T04:39:32;19.10;99.90
9800;DHT22;4939;52.00085300;4.17406100;2023-06-26T04:41:58;19.10;99.90
9800;DHT22;4939;52.00085300;4.17406100;2023-06-26T04:44:24;19.10;99.90
9800;DHT22;4939;52.00085300;4.17406100;2023-06-26T04:46:50;19.10;99.90
9800;DHT22;4939;52.00085300;4.17406100;2023-06-26T04:49:17;19.10;99.90
9800;DHT22;4939;52.00085300;4.17406100;2023-06-26T04:51:44;19.00;99.90
9800;DHT22;4939;52.00085300;4.17406100;2023-06-26T04:54:10;19.00;99.90
9800;DHT22;4939;52.00085300;4.17406100;2023-06-26T04:56:36;18.80;99.90
9800;DHT22;4939;52.00085300;4.17406100;2023-06-26T04:59:02;18.80;99.90
9800;DHT22;4939;52.00085300;4.17406100;2023-06-26T05:01:29;18.90;99.90
9800;DHT22;4939;52.00085300;4.17406100;2023-06-26T05:04:04;18.70;99.90
9800;DHT22;4939;52.00085300;4.17406100;2023-06-26T05:06:29;18.70;99.90
9800;DHT22;4939;52.00085300;4.17406100;2023-06-26T05:08:55;18.60;99.90
9800;DHT22;4939;52.00085300;4.17406100;2023-06-26T05:11:21;18.80;99.90
9800;DHT22;4939;52.00085300;4.17406100;2023-06-26T05:13:47;18.60;99.90
9800;DHT22;4939;52.00085300;4.17406100;2023-06-26T05:16:12;18.60;99.90
9800;DHT22;4939;52.00085300;4.17406100;2023-06-26T05:18:38;19.30;99.90
9800;DHT22;4939;52.00085300;4.17406100;2023-06-26T05:21:04;18.40;99.90
9800;DHT22;4939;52.00085300;4.17406100;2023-06-26T05:23:34;18.50;99.90
9800;DHT22;4939;52.00085300;4.17406100;2023-06-26T05:26:03;18.50;99.90
9800;DHT22;4939;52.00085300;4.17406100;2023-06-26T05:28:30;18.40;99.90
9800;DHT22;4939;52.00085300;4.17406100;2023-06-26T05:30:59;18.40;99.90
9800;DHT22;4939;52.00085300;4.17406100;2023-06-26T05:33:26;18.50;99.90
9800;DHT22;4939;52.00085300;4.17406100;2023-06-26T05:35:53;18.50;99.90
9800;DHT22;4939;52.00085300;4.17406100;2023-06-26T05:38:19;18.50;99.90
9800;DHT22;4939;52.00085300;4.17406100;2023-06-26T05:40:45;18.50;99.90
9800;DHT22;4939;52.00085300;4.17406100;2023-06-26T05:43:11;18.60;99.90
9800;DHT22;4939;52.00085300;4.17406100;2023-06-26T05:45:37;18.50;99.90
9800;DHT22;4939;52.00085300;4.17406100;2023-06-26T05:48:03;18.30;99.90
9800;DHT22;4939;52.00085300;4.17406100;2023-06-26T05:50:29;18.20;99.90
9800;DHT22;4939;52.00085300;4.17406100;2023-06-26T05:52:55;18.20;99.90
9800;DHT22;4939;52.00085300;4.17406100;2023-06-26T05:55:21;18.20;99.90
9800;DHT22;4939;52.00085300;4.17406100;2023-06-26T05:57:47;18.30;99.90
9800;DHT22;4939;52.00085300;4.17406100;2023-06-26T06:00:14;18.50;99.90
9800;DHT22;4939;52.00085300;4.17406100;2023-06-26T06:02:41;18.50;99.90
9800;DHT22;4939;52.00085300;4.17406100;2023-06-26T06:05:07;18.50;99.90
9800;DHT22;4939;52.00085300;4.17406100;2023-06-26T06:07:33;18.60;99.90
9800;DHT22;4939;52.00085300;4.17406100;2023-06-26T06:09:59;18.50;99.90
9800;DHT22;4939;52.00085300;4.17406100;2023-06-26T06:12:25;18.50;99.90
9800;DHT22;4939;52.00085300;4.17406100;2023-06-26T06:14:52;18.50;99.90
9800;DHT22;4939;52.00085300;4.17406100;2023-06-26T06:17:18;18.30;99.90
9800;DHT22;4939;52.00085300;4.17406100;2023-06-26T06:19:43;19.00;99.90
9800;DHT22;4939;52.00085300;4.17406100;2023-06-26T06:22:10;18.00;99.90
9800;DHT22;4939;52.00085300;4.17406100;2023-06-26T06:24:36;18.10;99.90
9800;DHT22;4939;52.00085300;4.17406100;2023-06-26T06:27:02;18.10;99.90
9800;DHT22;4939;52.00085300;4.17406100;2023-06-26T06:29:27;18.10;99.90
9800;DHT22;4939;52.00085300;4.17406100;2023-06-26T06:31:53;19.10;99.90
9800;DHT22;4939;52.00085300;4.17406100;2023-06-26T06:34:18;18.30;99.90
9800;DHT22;4939;52.00085300;4.17406100;2023-06-26T06:36:44;18.30;99.90
9800;DHT22;4939;52.00085300;4.17406100;2023-06-26T06:39:10;18.30;99.90
9800;DHT22;4939;52.00085300;4.17406100;2023-06-26T06:41:35;18.40;99.90
9800;DHT22;4939;52.00085300;4.17406100;2023-06-26T06:44:01;18.50;99.90
9800;DHT22;4939;52.00085300;4.17406100;2023-06-26T06:46:27;18.40;99.90
9800;DHT22;4939;52.00085300;4.17406100;2023-06-26T06:48:53;18.40;99.90
9800;DHT22;4939;52.00085300;4.17406100;2023-06-26T06:51:19;18.40;99.90
9800;DHT22;4939;52.00085300;4.17406100;2023-06-26T06:53:44;20.80;99.90
9800;DHT22;4939;52.00085300;4.17406100;2023-06-26T06:56:10;18.40;99.90
9800;DHT22;4939;52.00085300;4.17406100;2023-06-26T06:58:35;18.50;99.90
9800;DHT22;4939;52.00085300;4.17406100;2023-06-26T07:01:01;18.30;99.90
9800;DHT22;4939;52.00085300;4.17406100;2023-06-26T07:03:29;18.30;99.90
9800;DHT22;4939;52.00085300;4.17406100;2023-06-26T07:05:55;18.30;99.90
9800;DHT22;4939;52.00085300;4.17406100;2023-06-26T07:08:21;18.90;99.90
9800;DHT22;4939;52.00085300;4.17406100;2023-06-26T07:10:47;18.50;99.90
9800;DHT22;4939;52.00085300;4.17406100;2023-06-26T07:13:12;19.90;99.90
9800;DHT22;4939;52.00085300;4.17406100;2023-06-26T07:15:38;18.50;99.90
9800;DHT22;4939;52.00085300;4.17406100;2023-06-26T07:18:04;19.90;99.90
9800;DHT22;4939;52.00085300;4.17406100;2023-06-26T07:20:29;18.60;99.90
9800;DHT22;4939;52.00085300;4.17406100;2023-06-26T07:22:55;18.50;99.90
9800;DHT22;4939;52.00085300;4.17406100;2023-06-26T07:25:21;18.60;99.90
9800;DHT22;4939;52.00085300;4.17406100;2023-06-26T07:27:46;18.70;99.90
9800;DHT22;4939;52.00085300;4.17406100;2023-06-26T07:30:12;18.70;99.90
9800;DHT22;4939;52.00085300;4.17406100;2023-06-26T07:32:38;18.70;99.90
9800;DHT22;4939;52.00085300;4.17406100;2023-06-26T07:35:06;18.60;99.90
9800;DHT22;4939;52.00085300;4.17406100;2023-06-26T07:37:32;18.70;99.90
9800;DHT22;4939;52.00085300;4.17406100;2023-06-26T07:39:57;18.70;99.90
9800;DHT22;4939;52.00085300;4.17406100;2023-06-26T07:42:23;18.80;99.90
9800;DHT22;4939;52.00085300;4.17406100;2023-06-26T07:44:48;18.90;99.90
9800;DHT22;4939;52.00085300;4.17406100;2023-06-26T07:47:14;20.10;99.90
9800;DHT22;4939;52.00085300;4.17406100;2023-06-26T07:49:40;18.70;99.90
9800;DHT22;4939;52.00085300;4.17406100;2023-06-26T07:52:06;18.90;99.90
9800;DHT22;4939;52.00085300;4.17406100;2023-06-26T07:54:32;19.20;99.90
9800;DHT22;4939;52.00085300;4.17406100;2023-06-26T07:57:02;19.00;99.90
9800;DHT22;4939;52.00085300;4.17406100;2023-06-26T07:59:29;19.00;99.90
9800;DHT22;4939;52.00085300;4.17406100;2023-06-26T08:01:56;19.10;99.90
9800;DHT22;4939;52.00085300;4.17406100;2023-06-26T08:04:24;18.90;99.90
9800;DHT22;4939;52.00085300;4.17406100;2023-06-26T08:06:55;18.90;99.90
9800;DHT22;4939;52.00085300;4.17406100;2023-06-26T08:09:22;18.80;99.90
9800;DHT22;4939;52.00085300;4.17406100;2023-06-26T08:11:48;19.10;99.90
9800;DHT22;4939;52.00085300;4.17406100;2023-06-26T08:14:15;19.30;99.90
9800;DHT22;4939;52.00085300;4.17406100;2023-06-26T08:16:41;19.40;99.90
9800;DHT22;4939;52.00085300;4.17406100;2023-06-26T08:19:07;19.40;99.90
9800;DHT22;4939;52.00085300;4.17406100;2023-06-26T08:21:35;19.40;99.90
9800;DHT22;4939;52.00085300;4.17406100;2023-06-26T08:24:01;19.40;99.90
9800;DHT22;4939;52.00085300;4.17406100;2023-06-26T08:26:26;19.30;99.90
9800;DHT22;4939;52.00085300;4.17406100;2023-06-26T08:28:52;19.50;99.90
9800;DHT22;4939;52.00085300;4.17406100;2023-06-26T08:31:17;19.40;99.90
9800;DHT22;4939;52.00085300;4.17406100;2023-06-26T08:33:43;19.50;99.90
9800;DHT22;4939;52.00085300;4.17406100;2023-06-26T08:36:09;19.50;99.90
9800;DHT22;4939;52.00085300;4.17406100;2023-06-26T08:38:34;20.50;99.90
9800;DHT22;4939;52.00085300;4.17406100;2023-06-26T08:43:26;19.30;99.90
9800;DHT22;4939;52.00085300;4.17406100;2023-06-26T08:45:53;19.50;99.90
9800;DHT22;4939;52.00085300;4.17406100;2023-06-26T08:48:21;19.50;99.90
9800;DHT22;4939;52.00085300;4.17406100;2023-06-26T08:50:49;19.50;99.90
9800;DHT22;4939;52.00085300;4.17406100;2023-06-26T08:55:54;19.60;99.90
9800;DHT22;4939;52.00085300;4.17406100;2023-06-26T08:58:22;19.70;99.90
9800;DHT22;4939;52.00085300;4.17406100;2023-06-26T09:00:48;19.90;99.90
9800;DHT22;4939;52.00085300;4.17406100;2023-06-26T09:03:15;19.80;99.90
9800;DHT22;4939;52.00085300;4.17406100;2023-06-26T09:05:41;20.10;99.90
9800;DHT22;4939;52.00085300;4.17406100;2023-06-26T09:08:07;19.90;99.90
9800;DHT22;4939;52.00085300;4.17406100;2023-06-26T09:10:33;20.00;99.90
9800;DHT22;4939;52.00085300;4.17406100;2023-06-26T09:12:59;20.00;99.90
9800;DHT22;4939;52.00085300;4.17406100;2023-06-26T09:15:26;20.00;99.90
9800;DHT22;4939;52.00085300;4.17406100;2023-06-26T09:17:56;20.10;99.90
9800;DHT22;4939;52.00085300;4.17406100;2023-06-26T09:20:22;20.00;99.90
9800;DHT22;4939;52.00085300;4.17406100;2023-06-26T09:22:54;20.00;99.90
9800;DHT22;4939;52.00085300;4.17406100;2023-06-26T09:25:23;20.00;99.90
9800;DHT22;4939;52.00085300;4.17406100;2023-06-26T09:27:49;20.10;99.90
9800;DHT22;4939;52.00085300;4.17406100;2023-06-26T09:30:18;20.30;99.90
9800;DHT22;4939;52.00085300;4.17406100;2023-06-26T09:32:44;21.10;99.90
9800;DHT22;4939;52.00085300;4.17406100;2023-06-26T09:35:11;20.10;99.90
9800;DHT22;4939;52.00085300;4.17406100;2023-06-26T09:37:37;20.30;99.90
9800;DHT22;4939;52.00085300;4.17406100;2023-06-26T09:40:03;20.10;99.90
9800;DHT22;4939;52.00085300;4.17406100;2023-06-26T09:42:30;20.30;99.90
9800;DHT22;4939;52.00085300;4.17406100;2023-06-26T09:44:56;20.40;99.90
9800;DHT22;4939;52.00085300;4.17406100;2023-06-26T09:47:22;20.50;99.90
9800;DHT22;4939;52.00085300;4.17406100;2023-06-26T09:49:48;20.20;99.90
9800;DHT22;4939;52.00085300;4.17406100;2023-06-26T09:52:17;20.10;99.90
9800;DHT22;4939;52.00085300;4.17406100;2023-06-26T09:54:44;20.00;99.90
9800;DHT22;4939;52.00085300;4.17406100;2023-06-26T09:57:15;20.20;99.90
9800;DHT22;4939;52.00085300;4.17406100;2023-06-26T09:59:42;20.30;99.90
9800;DHT22;4939;52.00085300;4.17406100;2023-06-26T10:02:11;20.10;99.90
9800;DHT22;4939;52.00085300;4.17406100;2023-06-26T10:04:37;20.20;99.90
9800;DHT22;4939;52.00085300;4.17406100;2023-06-26T10:07:10;20.20;99.90
9800;DHT22;4939;52.00085300;4.17406100;2023-06-26T10:09:42;20.10;99.90
9800;DHT22;4939;52.00085300;4.17406100;2023-06-26T10:12:26;20.50;99.90
9800;DHT22;4939;52.00085300;4.17406100;2023-06-26T10:14:53;20.50;99.90
9800;DHT22;4939;52.00085300;4.17406100;2023-06-26T10:17:20;20.40;99.90
9800;DHT22;4939;52.00085300;4.17406100;2023-06-26T10:19:48;20.30;99.90
9800;DHT22;4939;52.00085300;4.17406100;2023-06-26T10:22:15;20.20;99.90
9800;DHT22;4939;52.00085300;4.17406100;2023-06-26T10:24:43;20.70;99.90
9800;DHT22;4939;52.00085300;4.17406100;2023-06-26T10:27:16;20.90;99.90
9800;DHT22;4939;52.00085300;4.17406100;2023-06-26T10:29:44;21.00;99.90
9800;DHT22;4939;52.00085300;4.17406100;2023-06-26T10:32:12;20.90;99.90
9800;DHT22;4939;52.00085300;4.17406100;2023-06-26T10:34:38;20.90;99.90
9800;DHT22;4939;52.00085300;4.17406100;2023-06-26T10:37:04;20.80;99.90
9800;DHT22;4939;52.00085300;4.17406100;2023-06-26T10:42:11;21.20;99.90
9800;DHT22;4939;52.00085300;4.17406100;2023-06-26T10:44:44;21.10;99.90
9800;DHT22;4939;52.00085300;4.17406100;2023-06-26T10:47:11;20.40;99.90
9800;DHT22;4939;52.00085300;4.17406100;2023-06-26T10:49:37;20.40;99.90
9800;DHT22;4939;52.00085300;4.17406100;2023-06-26T10:52:05;20.70;99.90
9800;DHT22;4939;52.00085300;4.17406100;2023-06-26T10:54:34;20.80;99.90
9800;DHT22;4939;52.00085300;4.17406100;2023-06-26T10:57:01;21.30;99.90
9800;DHT22;4939;52.00085300;4.17406100;2023-06-26T10:59:31;21.20;99.90
9800;DHT22;4939;52.00085300;4.17406100;2023-06-26T11:02:01;20.60;99.90
9800;DHT22;4939;52.00085300;4.17406100;2023-06-26T11:04:51;20.60;99.90
9800;DHT22;4939;52.00085300;4.17406100;2023-06-26T11:07:23;20.50;99.90
9800;DHT22;4939;52.00085300;4.17406100;2023-06-26T11:12:43;20.10;99.90
9800;DHT22;4939;52.00085300;4.17406100;2023-06-26T11:15:15;20.20;99.90
9800;DHT22;4939;52.00085300;4.17406100;2023-06-26T11:17:42;20.30;99.90
9800;DHT22;4939;52.00085300;4.17406100;2023-06-26T11:20:10;20.50;99.90
9800;DHT22;4939;52.00085300;4.17406100;2023-06-26T11:22:38;20.50;99.90
9800;DHT22;4939;52.00085300;4.17406100;2023-06-26T11:25:06;21.00;99.90
9800;DHT22;4939;52.00085300;4.17406100;2023-06-26T11:27:41;21.20;99.90
9800;DHT22;4939;52.00085300;4.17406100;2023-06-26T11:30:11;21.30;99.90
9800;DHT22;4939;52.00085300;4.17406100;2023-06-26T11:32:40;21.30;99.90
9800;DHT22;4939;52.00085300;4.17406100;2023-06-26T11:35:06;21.10;99.90
9800;DHT22;4939;52.00085300;4.17406100;2023-06-26T11:37:32;21.20;99.90
9800;DHT22;4939;52.00085300;4.17406100;2023-06-26T11:39:58;21.40;99.90
9800;DHT22;4939;52.00085300;4.17406100;2023-06-26T11:42:24;21.40;99.90
9800;DHT22;4939;52.00085300;4.17406100;2023-06-26T11:44:51;21.20;99.90
9800;DHT22;4939;52.00085300;4.17406100;2023-06-26T11:47:18;21.50;99.90
9800;DHT22;4939;52.00085300;4.17406100;2023-06-26T11:49:46;21.50;99.90
9800;DHT22;4939;52.00085300;4.17406100;2023-06-26T11:52:12;21.50;99.90
9800;DHT22;4939;52.00085300;4.17406100;2023-06-26T11:54:39;21.30;99.90
9800;DHT22;4939;52.00085300;4.17406100;2023-06-26T11:57:05;20.80;99.90
9800;DHT22;4939;52.00085300;4.17406100;2023-06-26T11:59:38;20.40;99.90
9800;DHT22;4939;52.00085300;4.17406100;2023-06-26T12:02:08;20.40;99.90
9800;DHT22;4939;52.00085300;4.17406100;2023-06-26T12:04:37;20.90;99.90
9800;DHT22;4939;52.00085300;4.17406100;2023-06-26T12:07:05;21.10;99.90
9800;DHT22;4939;52.00085300;4.17406100;2023-06-26T12:09:34;23.20;99.90
9800;DHT22;4939;52.00085300;4.17406100;2023-06-26T12:12:04;21.90;99.90
9800;DHT22;4939;52.00085300;4.17406100;2023-06-26T12:14:31;21.00;99.90
9800;DHT22;4939;52.00085300;4.17406100;2023-06-26T12:17:04;21.00;99.90
9800;DHT22;4939;52.00085300;4.17406100;2023-06-26T12:19:30;20.90;99.90
9800;DHT22;4939;52.00085300;4.17406100;2023-06-26T12:21:58;20.80;99.90
9800;DHT22;4939;52.00085300;4.17406100;2023-06-26T12:24:23;21.70;99.90
9800;DHT22;4939;52.00085300;4.17406100;2023-06-26T12:26:54;20.80;99.90
9800;DHT22;4939;52.00085300;4.17406100;2023-06-26T12:29:32;20.80;99.90
9800;DHT22;4939;52.00085300;4.17406100;2023-06-26T12:31:59;20.60;99.90
9800;DHT22;4939;52.00085300;4.17406100;2023-06-26T12:34:33;20.80;99.90
9800;DHT22;4939;52.00085300;4.17406100;2023-06-26T12:42:19;21.00;99.90
9800;DHT22;4939;52.00085300;4.17406100;2023-06-26T12:44:45;20.80;99.90
9800;DHT22;4939;52.00085300;4.17406100;2023-06-26T12:47:11;20.80;99.90
9800;DHT22;4939;52.00085300;4.17406100;2023-06-26T12:49:43;20.70;99.90
9800;DHT22;4939;52.00085300;4.17406100;2023-06-26T12:52:13;20.90;99.90
9800;DHT22;4939;52.00085300;4.17406100;2023-06-26T12:54:41;21.10;99.90
9800;DHT22;4939;52.00085300;4.17406100;2023-06-26T12:57:07;21.20;99.90
9800;DHT22;4939;52.00085300;4.17406100;2023-06-26T12:59:35;21.40;99.90
9800;DHT22;4939;52.00085300;4.17406100;2023-06-26T13:02:01;21.70;99.90
9800;DHT22;4939;52.00085300;4.17406100;2023-06-26T13:04:28;21.90;99.90
9800;DHT22;4939;52.00085300;4.17406100;2023-06-26T13:06:53;21.70;99.90
9800;DHT22;4939;52.00085300;4.17406100;2023-06-26T13:09:23;21.80;99.90
9800;DHT22;4939;52.00085300;4.17406100;2023-06-26T13:11:49;21.60;99.90
9800;DHT22;4939;52.00085300;4.17406100;2023-06-26T13:14:15;21.80;99.90
9800;DHT22;4939;52.00085300;4.17406100;2023-06-26T13:16:41;21.90;99.90
9800;DHT22;4939;52.00085300;4.17406100;2023-06-26T13:19:07;22.00;99.90
9800;DHT22;4939;52.00085300;4.17406100;2023-06-26T13:21:36;22.90;99.90
9800;DHT22;4939;52.00085300;4.17406100;2023-06-26T13:24:02;22.50;99.90
9800;DHT22;4939;52.00085300;4.17406100;2023-06-26T13:26:31;22.60;99.90
9800;DHT22;4939;52.00085300;4.17406100;2023-06-26T13:28:57;22.70;99.90
9800;DHT22;4939;52.00085300;4.17406100;2023-06-26T13:31:23;22.60;99.90
9800;DHT22;4939;52.00085300;4.17406100;2023-06-26T13:33:48;22.80;99.90
9800;DHT22;4939;52.00085300;4.17406100;2023-06-26T13:36:15;22.60;99.90
9800;DHT22;4939;52.00085300;4.17406100;2023-06-26T13:38:41;22.40;99.90
9800;DHT22;4939;52.00085300;4.17406100;2023-06-26T13:41:07;22.60;99.90
9800;DHT22;4939;52.00085300;4.17406100;2023-06-26T13:43:33;22.50;99.90
9800;DHT22;4939;52.00085300;4.17406100;2023-06-26T13:45:58;22.50;99.90
9800;DHT22;4939;52.00085300;4.17406100;2023-06-26T13:48:24;22.50;99.90
9800;DHT22;4939;52.00085300;4.17406100;2023-06-26T13:50:50;22.80;99.90
9800;DHT22;4939;52.00085300;4.17406100;2023-06-26T13:53:16;22.50;99.90
9800;DHT22;4939;52.00085300;4.17406100;2023-06-26T13:55:42;22.40;99.90
9800;DHT22;4939;52.00085300;4.17406100;2023-06-26T13:58:08;22.40;99.90
9800;DHT22;4939;52.00085300;4.17406100;2023-06-26T14:00:35;22.30;99.90
9800;DHT22;4939;52.00085300;4.17406100;2023-06-26T14:03:02;22.50;99.90